createdAt,value
2022-11-24T00:03:28.409Z,5.20
2022-11-24T00:09:30.220Z,5.30
2022-11-24T00:15:32.040Z,3.90
2022-11-24T00:21:33.890Z,5.43
2022-11-24T00:27:35.696Z,5.77
2022-11-24T00:33:37.537Z,5.87
2022-11-24T00:39:39.466Z,5.73
2022-11-24T00:45:42.550Z,4.60
2022-11-24T00:51:44.698Z,6.07
2022-11-24T00:57:46.570Z,5.90
2022-11-24T01:03:48.749Z,4.37
2022-11-24T01:09:50.478Z,4.83
2022-11-24T01:15:53.051Z,5.97
2022-11-24T01:21:55.018Z,7.00
2022-11-24T01:27:56.939Z,5.27
2022-11-24T01:33:59.026Z,5.07
2022-11-24T01:40:01.013Z,6.87
2022-11-24T01:46:20.525Z,5.60
2022-11-24T01:52:24.909Z,6.07
2022-11-24T01:58:32.504Z,6.33
2022-11-24T02:04:36.218Z,5.30
2022-11-24T02:10:39.246Z,5.30
2022-11-24T02:16:44.217Z,6.47
2022-11-24T02:23:01.260Z,6.17
2022-11-24T02:29:04.380Z,8.43
2022-11-24T02:35:08.643Z,8.43
2022-11-24T02:41:14.061Z,6.93
2022-11-24T02:47:16.215Z,7.23
2022-11-24T02:53:18.729Z,7.10
2022-11-24T02:59:20.571Z,6.73
2022-11-24T03:05:22.395Z,6.60
2022-11-24T03:11:24.368Z,7.30
2022-11-24T03:17:26.267Z,12.97
2022-11-24T03:23:28.253Z,7.23
2022-11-24T03:29:30.421Z,6.87
2022-11-24T03:35:32.345Z,6.90
2022-11-24T03:41:34.209Z,6.27
2022-11-24T03:47:36.067Z,5.33
2022-11-24T03:53:38.035Z,5.20
2022-11-24T03:59:40.065Z,4.17
2022-11-24T04:05:42.046Z,5.00
2022-11-24T04:12:02.245Z,4.87
2022-11-24T04:18:04.256Z,4.77
2022-11-24T04:24:06.598Z,4.30
2022-11-24T04:30:08.839Z,4.03
2022-11-24T04:36:12.975Z,4.53
2022-11-24T04:42:15.251Z,5.00
2022-11-24T04:48:17.964Z,4.30
2022-11-24T04:54:19.706Z,4.13
2022-11-24T05:00:21.782Z,4.30
2022-11-24T05:06:23.879Z,3.70
2022-11-24T05:12:31.144Z,4.50
2022-11-24T05:18:33.684Z,4.47
2022-11-24T05:24:35.802Z,5.03
2022-11-24T05:30:39.799Z,4.80
2022-11-24T05:36:53.625Z,3.60
2022-11-24T05:42:55.599Z,4.33
2022-11-24T05:48:57.783Z,4.23
2022-11-24T05:55:04.220Z,5.40
2022-11-24T06:01:07.279Z,4.07
2022-11-24T06:07:11.702Z,3.40
2022-11-24T06:13:13.855Z,3.63
2022-11-24T06:19:15.875Z,4.00
2022-11-24T06:25:18.108Z,3.60
2022-11-24T06:31:20.147Z,4.00
2022-11-24T06:37:22.021Z,3.80
2022-11-24T06:43:23.773Z,3.60
2022-11-24T06:49:28.679Z,4.33
2022-11-24T06:55:30.846Z,5.47
2022-11-24T07:01:32.781Z,4.43
2022-11-24T07:07:34.722Z,4.50
2022-11-24T07:13:37.603Z,4.20
2022-11-24T07:19:39.587Z,4.40
2022-11-24T07:25:41.450Z,5.27
2022-11-24T07:31:43.652Z,4.77
2022-11-24T07:37:45.422Z,5.40
2022-11-24T07:43:48.365Z,4.23
2022-11-24T07:49:58.419Z,5.97
2022-11-24T07:56:02.496Z,6.77
2022-11-24T08:08:21.855Z,5.60
2022-11-24T08:14:27.358Z,4.80
2022-11-24T08:20:45.189Z,7.70
2022-11-24T08:26:47.154Z,5.73
2022-11-24T08:32:49.129Z,5.80
2022-11-24T08:38:56.276Z,5.20
2022-11-24T08:44:59.203Z,5.27
2022-11-24T08:51:10.720Z,5.60
2022-11-24T08:57:20.219Z,5.20
2022-11-24T09:03:23.445Z,4.73
2022-11-24T09:09:25.509Z,6.73
2022-11-24T09:15:27.340Z,6.70
2022-11-24T09:21:30.460Z,6.10
2022-11-24T09:27:32.251Z,6.67
2022-11-24T09:33:34.952Z,6.53
2022-11-24T09:39:36.882Z,6.97
2022-11-24T09:46:06.144Z,7.07
2022-11-24T09:52:16.788Z,8.23
2022-11-24T09:58:43.202Z,6.80
2022-11-24T10:04:47.381Z,7.50
2022-11-24T10:11:00.693Z,7.17
2022-11-24T10:17:33.382Z,7.33
2022-11-24T10:23:50.424Z,8.57
2022-11-24T10:29:53.108Z,7.73
2022-11-24T10:35:56.578Z,7.33
2022-11-24T10:42:14.443Z,7.40
2022-11-24T10:48:24.327Z,8.13
2022-11-24T10:54:26.087Z,8.07
2022-11-24T11:00:34.156Z,8.10
2022-11-24T11:06:38.148Z,7.93
2022-11-24T11:12:44.312Z,7.63
2022-11-24T11:18:49.704Z,8.17
2022-11-24T11:25:05.959Z,8.47
2022-11-24T11:31:22.026Z,9.27
2022-11-24T11:37:28.412Z,8.27
2022-11-24T11:43:41.034Z,9.20
2022-11-24T11:49:43.472Z,10.27
2022-11-24T11:55:58.784Z,11.00
2022-11-24T12:02:19.406Z,10.60
2022-11-24T12:08:55.813Z,10.23
2022-11-24T12:15:04.564Z,9.57
2022-11-24T12:21:32.187Z,11.30
2022-11-24T12:28:22.193Z,12.97
2022-11-24T12:34:46.478Z,11.70
2022-11-24T12:41:41.635Z,11.60
2022-11-24T12:48:05.449Z,12.47
2022-11-24T12:54:13.144Z,12.23
2022-11-24T13:00:24.181Z,11.10
2022-11-24T13:06:35.877Z,12.83
2022-11-24T13:12:57.697Z,12.63
2022-11-24T13:19:02.690Z,12.40
2022-11-24T13:25:20.504Z,12.00
2022-11-24T13:31:23.337Z,10.80
2022-11-24T13:37:35.318Z,11.30
2022-11-24T13:43:37.873Z,11.00
2022-11-24T13:49:43.681Z,11.07
2022-11-24T13:56:08.733Z,8.17
2022-11-24T14:02:24.183Z,8.27
2022-11-24T14:08:28.833Z,7.20
2022-11-24T14:14:30.579Z,9.13
2022-11-24T14:20:32.369Z,8.50
2022-11-24T14:26:41.307Z,24.30
2022-11-24T14:33:00.769Z,14.73
2022-11-24T14:39:02.787Z,10.50
2022-11-24T14:45:05.000Z,11.87
2022-11-24T14:51:22.522Z,11.90
2022-11-24T14:57:24.202Z,11.63
2022-11-24T15:03:26.121Z,11.43
2022-11-24T15:09:53.131Z,10.53
2022-11-24T15:16:03.130Z,11.17
2022-11-24T15:22:34.366Z,10.93
2022-11-24T15:28:36.128Z,13.60
2022-11-24T15:34:37.947Z,14.70
2022-11-24T15:40:41.332Z,13.83
2022-11-24T15:46:43.111Z,14.70
2022-11-24T15:52:45.654Z,12.73
2022-11-24T15:58:47.550Z,11.97
2022-11-24T16:04:49.727Z,13.47
2022-11-24T16:10:51.645Z,14.67
2022-11-24T16:16:53.530Z,14.30
2022-11-24T16:22:55.345Z,15.43
2022-11-24T16:28:57.074Z,14.20
2022-11-24T16:34:58.892Z,14.10
2022-11-24T16:41:00.772Z,13.23
2022-11-24T16:47:02.663Z,13.37
2022-11-24T16:53:04.561Z,15.80
2022-11-24T16:59:06.331Z,13.83
2022-11-24T17:05:09.111Z,14.03
2022-11-24T17:11:18.666Z,13.20
2022-11-24T17:17:20.460Z,13.00
2022-11-24T17:23:22.347Z,13.43
2022-11-24T17:29:24.646Z,11.87
2022-11-24T17:35:26.447Z,11.37
2022-11-24T17:41:28.255Z,12.73
2022-11-24T17:47:30.408Z,11.63
2022-11-24T17:53:32.257Z,12.00
2022-11-24T17:59:34.028Z,13.97
2022-11-24T18:05:36.694Z,16.10
2022-11-24T18:11:38.415Z,17.37
2022-11-24T18:17:40.196Z,14.47
2022-11-24T18:23:43.561Z,15.00
2022-11-24T18:29:45.339Z,13.90
2022-11-24T18:36:01.332Z,17.40
2022-11-24T18:42:03.185Z,17.13
2022-11-24T18:48:05.157Z,16.70
2022-11-24T18:54:06.928Z,17.30
2022-11-24T19:00:10.507Z,15.93
2022-11-24T19:06:36.354Z,16.00
2022-11-24T19:12:38.624Z,17.13
2022-11-24T19:18:40.504Z,16.60
2022-11-24T19:24:42.464Z,19.73
2022-11-24T19:30:45.590Z,18.40
2022-11-24T19:36:47.407Z,18.23
2022-11-24T19:42:49.262Z,16.40
2022-11-24T19:48:54.284Z,16.73
2022-11-24T19:54:56.215Z,13.57
2022-11-24T20:01:12.378Z,13.53
2022-11-24T20:07:14.289Z,12.13
2022-11-24T20:13:16.200Z,12.90
2022-11-24T20:19:18.861Z,11.17
2022-11-24T20:25:20.679Z,11.30
2022-11-24T20:31:25.758Z,11.20
2022-11-24T20:37:29.657Z,10.47
2022-11-24T20:43:38.511Z,8.87
2022-11-24T20:49:54.511Z,9.00
2022-11-24T20:56:08.167Z,9.13
2022-11-24T21:02:16.059Z,7.70
2022-11-24T21:08:19.699Z,7.97
2022-11-24T21:14:25.274Z,7.03
2022-11-24T21:20:27.321Z,8.07
2022-11-24T21:26:31.073Z,7.13
2022-11-24T21:32:40.417Z,7.17
2022-11-24T21:38:55.841Z,7.33
2022-11-24T21:45:03.580Z,6.40
2022-11-24T21:51:12.089Z,6.57
2022-11-24T21:57:14.316Z,7.10
2022-11-24T22:03:17.018Z,6.60
2022-11-24T22:09:19.444Z,6.37
2022-11-24T22:15:21.128Z,6.13
2022-11-24T22:21:29.414Z,6.17
2022-11-24T22:27:31.377Z,5.30
2022-11-24T22:33:33.813Z,5.47
2022-11-24T22:39:39.551Z,4.43
2022-11-24T22:45:41.921Z,5.10
2022-11-24T22:51:47.393Z,4.50
2022-11-24T22:57:51.287Z,3.87
2022-11-24T23:03:57.188Z,3.80
2022-11-24T23:09:59.307Z,3.47
2022-11-24T23:16:12.989Z,3.67
2022-11-24T23:22:15.213Z,2.50
2022-11-24T23:28:16.955Z,2.30
2022-11-24T23:34:18.782Z,2.30
2022-11-24T23:40:33.046Z,2.50
2022-11-24T23:46:35.130Z,2.20
2022-11-24T23:52:37.734Z,2.27
2022-11-24T23:58:40.540Z,2.17
